Monday, November 20, 2017, 4:17 AM EST

KMUI, Muir Army Air Field / Indiantown

Location: Jonestown, PA, United States Lat: 40.433
Local Time: 4:17 AM EST ( 9:17 GMT) Lon: -76.567
Time Zone: US/Eastern Elev: 488 ft

Show me the last for .
Show Decoded

2017-11-20 03:56 METAR KMUI 200856Z AUTO 26011G17KT 10SM SCT045 02/M06 A2997 RMK AO2 SLP155 60000
                 T00191057 51020 TSNO $ =
2017-11-20 02:56 METAR KMUI 200756Z AUTO 26006KT 10SM FEW048 BKN060 02/M04 A2997 RMK AO2 PK WND
                 28026/22 RAE30 SLP155 P0000 T00201041 TSNO $ =
2017-11-20 02:30 METAR KMUI 200730Z AUTO 25010G26KT 10SM FEW043 OVC055 02/M04 A2996 RMK AO2 RAE30
                 SLP152 TSNO $ =
2017-11-20 01:56 METAR KMUI 200656Z AUTO 27015G22KT 10SM -RA BKN049 OVC065 02/M04 A2994 RMK AO2
                 RAB51 SLP145 P0000 T00211038 TSNO $ =
2017-11-20 01:51 METAR KMUI 200651Z AUTO 27011G22KT 10SM -RA SCT048 OVC065 02/M04 A2994 RMK AO2
                 RAB51 SLP145 TSNO $ =
2017-11-20 00:56 METAR KMUI 200556Z AUTO 27006KT 10SM FEW029 SCT055 02/M03 A2991 RMK AO2 SLP135
                 60000 T00161031 10044 20015 52022 TSNO $ =
2017-11-19 23:56 METAR KMUI 200456Z AUTO 27012G25KT 10SM FEW033 SCT044 SCT055 SCT065 03/M03 A2989
                 RMK AO2 RAB31E52 SLP128 P0000 T00271032 401310027 TSNO $ =
2017-11-19 23:52 METAR KMUI 200452Z AUTO 28014G25KT 10SM FEW033 SCT044 BKN055 BKN065 03/M03 A2989
                 RMK AO2 RAB31E52 SLP128 TSNO $ =
2017-11-19 23:31 METAR KMUI 200431Z AUTO 28014G20KT 10SM -RA BKN043 03/M04 A2987 RMK AO2 RAB31
                 SLP121 TSNO $ =
2017-11-19 22:56 METAR KMUI 200356Z AUTO 27011G18KT 10SM BKN080 03/M04 A2987 RMK AO2 SLP121
                 T00341036 TSNO $ =
2017-11-19 21:56 METAR KMUI 200256Z AUTO 27008G17KT 10SM BKN085 04/M04 A2984 RMK AO2 SLP110
                 T00411044 52018 TSNO $ =
2017-11-19 20:56 METAR KMUI 200156Z AUTO 29006KT 10SM FEW042 04/M04 A2983 RMK AO2 PK WND 26026/00
                 SLP107 T00381042 TSNO $ =
2017-11-19 19:56 METAR KMUI 200056Z AUTO 27014G22KT 10SM BKN080 04/M04 A2980 RMK AO2 SLP097
                 T00441041 TSNO $ =
2017-11-19 18:56 METAR KMUI 192356Z AUTO 26008G19KT 10SM FEW080 04/M03 A2979 RMK AO2 SLP093 60000
                 T00411032 10081 20041 52028 TSNO $ =
2017-11-19 17:56 METAR KMUI 192256Z AUTO 26007KT 10SM BKN070 05/M02 A2976 RMK AO2 PK WND 29026/13
                 DZE07 SLP083 P0000 T00471020 TSNO $ =
2017-11-19 17:07 METAR KMUI 192207Z AUTO 26013G25KT 10SM BKN041 BKN049 OVC070 06/M02 A2973 RMK
                 AO2 DZE07 SLP072 TSNO $ =
2017-11-19 16:56 METAR KMUI 192156Z AUTO 28011KT 10SM -DZ BKN045 OVC055 06/M03 A2973 RMK AO2
                 RAB43E54DZB54 SLP072 P0000 T00611030 TSNO $ =
2017-11-19 16:43 METAR KMUI 192143Z AUTO 27014G20KT 10SM -RA BKN050 OVC065 06/M04 A2972 RMK AO2
                 RAB43 SLP068 TSNO $ =
2017-11-19 15:56 METAR KMUI 192056Z AUTO 30013G25KT 10SM SCT055 07/M05 A2970 RMK AO2 SLP061
                 T00661048 52019 TSNO $ =
2017-11-19 14:56 METAR KMUI 191956Z AUTO 27011G24KT 10SM OVC055 07/M04 A2968 RMK AO2 PK WND
                 27031/09 SLP055 T00711040 TSNO $ =
2017-11-19 13:56 METAR KMUI 191856Z AUTO 29010G24KT 10SM OVC050 08/M03 A2966 RMK AO2 PK WND
                 29030/34 SLP048 T00771029 TSNO $ =
2017-11-19 12:56 METAR KMUI 191756Z AUTO 29013G28KT 10SM OVC045 08/M01 A2964 RMK AO2 PK WND
                 27036/23 SLP042 60000 T00811007 10090 20072 52024 TSNO $ =
2017-11-19 11:56 METAR KMUI 191656Z AUTO 29015G25KT 10SM FEW034 08/01 A2963 RMK AO2 PK WND
                 28031/02 RAB19E44 SLP038 P0000 T00780012 TSNO $ =
2017-11-19 11:44 METAR KMUI 191644Z AUTO 28017G24KT 10SM FEW021 SCT033 BKN050 07/01 A2963 RMK AO2
                 RAB19E44 SLP039 TSNO $ =
2017-11-19 11:19 METAR KMUI 191619Z AUTO 27015G23KT 10SM -RA SCT034 OVC050 08/00 A2962 RMK AO2
                 RAB19 SLP035 TSNO $ =
2017-11-19 10:56 METAR KMUI 191556Z AUTO 27017G28KT 10SM BKN040 OVC050 08/00 A2961 RMK AO2 SLP031
                 T00820004 TSNO $ =
2017-11-19 09:56 METAR KMUI 191456Z AUTO 30010G24KT 10SM SCT036 BKN050 08/01 A2957 RMK AO2 PK WND
                 27027/14 RAB11E20 SLP018 P0000 60000 T00840011 52045 TSNO $ =
2017-11-19 09:20 METAR KMUI 191420Z AUTO 27018G27KT 10SM BKN039 BKN048 08/02 A2956 RMK AO2
                 RAB11E20 SLP015 TSNO $ =
2017-11-19 09:11 METAR KMUI 191411Z AUTO 28020G25KT 10SM -RA BKN037 BKN046 08/01 A2955 RMK AO2
                 RAB11 SLP011 TSNO $ =
2017-11-19 08:56 METAR KMUI 191356Z AUTO 27023G35KT 10SM BKN039 08/01 A2954 RMK AO2 SLP008
                 T00770007 TSNO $ =
2017-11-19 07:56 METAR KMUI 191256Z AUTO 27013G27KT 10SM BKN036 07/01 A2949 RMK AO2 PK WND
                 26030/19 PRESRR SLP991 T00730012 TSNO $ =
2017-11-19 06:56 METAR KMUI 191156Z AUTO 28022G33KT 10SM SCT036 07/01 A2943 RMK AO2 PK WND
                 27038/1058 PRESRR SLP971 60005 70092 T00740013 10131 20074 52071 TSNO $ =
2017-11-19 05:56 METAR KMUI 191056Z AUTO 28026G36KT 10SM FEW036 09/02 A2937 RMK AO2 PK WND
                 27036/51 PRESRR SLP950 T00860022 TSNO $ =
2017-11-19 04:56 METAR KMUI 190956Z AUTO 26018G37KT 10SM FEW029 SCT036 BKN047 OVC060 12/08 A2929
                 RMK AO2 PK WND 24037/45 RAB01E10DZB10E21 PRESRR SLP922 P0001 T01230084 TSNO $ =
2017-11-19 04:43 METAR KMUI 190943Z AUTO 26024G34KT 10SM FEW020 SCT028 BKN036 OVC055 13/11 A2927
                 RMK AO2 RAB01E10DZB10E21 SLP915 TSNO $ =
2017-11-19 04:21 METAR KMUI 190921Z AUTO 25017G22KT 10SM OVC020 13/13 A2925 RMK AO2
                 RAB01E10DZB10E21 SLP909 TSNO $ =

Support USWX by starting your Amazon purchase here.